createdAt,value
2023-03-07T00:00:34.101Z,22.4
2023-03-07T00:15:32.584Z,22.4
2023-03-07T00:30:32.872Z,22.4
2023-03-07T00:45:31.973Z,22.4
2023-03-07T01:00:32.594Z,22.4
2023-03-07T01:15:31.967Z,22.4
2023-03-07T01:30:32.513Z,22.4
2023-03-07T01:45:32.602Z,22.4
2023-03-07T02:00:32.408Z,22.3
2023-03-07T02:15:32.704Z,22.3
2023-03-07T02:30:32.227Z,22.3
2023-03-07T02:45:32.138Z,22.3
2023-03-07T03:00:32.818Z,22.3
2023-03-07T03:15:32.074Z,22.3
2023-03-07T03:30:32.531Z,22.3
2023-03-07T03:45:32.465Z,22.3
2023-03-07T04:00:32.299Z,22.3
2023-03-07T04:15:32.289Z,22.3
2023-03-07T04:30:32.549Z,22.2
2023-03-07T04:45:32.589Z,22.3
2023-03-07T05:00:32.743Z,22.2
2023-03-07T05:15:32.537Z,22.2
2023-03-07T05:30:32.840Z,22.2
2023-03-07T05:45:33.006Z,22.2
2023-03-07T06:00:35.027Z,22.2
2023-03-07T06:15:32.730Z,22.2
2023-03-07T06:30:33.621Z,22.2
2023-03-07T06:45:32.330Z,22.3
2023-03-07T07:00:39.005Z,22.4
2023-03-07T07:15:32.458Z,22.5
2023-03-07T07:30:33.532Z,22.6
2023-03-07T07:45:32.129Z,22.7
2023-03-07T08:00:37.689Z,22.8
2023-03-07T08:15:32.387Z,22.8
2023-03-07T08:30:33.523Z,22.9
2023-03-07T08:45:32.117Z,22.9
2023-03-07T09:00:35.612Z,23
2023-03-07T09:15:31.937Z,23
2023-03-07T09:30:33.437Z,23.1
2023-03-07T09:45:32.884Z,23.1
2023-03-07T10:00:36.761Z,23.1
2023-03-07T10:15:32.682Z,23.1
2023-03-07T10:30:34.335Z,23.2
2023-03-07T10:45:32.756Z,23.3
2023-03-07T11:00:36.092Z,23.3
2023-03-07T11:15:32.756Z,23.3
2023-03-07T11:30:34.185Z,23.3
2023-03-07T11:45:32.590Z,23.3
2023-03-07T12:00:36.584Z,23.3
2023-03-07T12:15:32.740Z,23.3
2023-03-07T12:30:32.728Z,23.4
2023-03-07T12:45:32.768Z,23.4
2023-03-07T13:00:33.455Z,23.5
2023-03-07T13:15:32.465Z,23.6
2023-03-07T13:30:32.516Z,23.6
2023-03-07T13:45:32.831Z,23.7
2023-03-07T14:00:33.802Z,23.7
2023-03-07T14:15:32.293Z,23.8
2023-03-07T14:30:34.270Z,23.8
2023-03-07T14:45:32.725Z,23.9
2023-03-07T15:00:34.253Z,23.9
2023-03-07T15:15:32.472Z,23.9
2023-03-07T15:30:34.468Z,23.8
2023-03-07T15:45:33.155Z,23.6
2023-03-07T16:00:37.448Z,23.6
2023-03-07T16:15:32.846Z,23.5
2023-03-07T16:30:33.999Z,23.4
2023-03-07T16:45:32.237Z,23.3
2023-03-07T17:00:38.221Z,23.3
2023-03-07T17:15:32.888Z,23.2
2023-03-07T17:30:33.614Z,23.1
2023-03-07T17:45:33.036Z,23.1
2023-03-07T18:00:40.581Z,23.0
2023-03-07T18:30:34.633Z,22.9
2023-03-07T18:45:33.061Z,22.8
2023-03-07T19:00:37.368Z,22.8
2023-03-07T19:15:32.594Z,22.7
2023-03-07T19:30:34.262Z,22.6
2023-03-07T19:45:31.977Z,22.5
2023-03-07T20:00:35.864Z,22.5
2023-03-07T20:15:32.558Z,22.3
2023-03-07T20:30:33.386Z,22.3
2023-03-07T20:45:32.621Z,22.2
2023-03-07T21:00:34.675Z,22.2
2023-03-07T21:15:32.939Z,22.1
2023-03-07T21:30:32.959Z,22.1
2023-03-07T21:45:32.192Z,22.0
2023-03-07T22:00:32.926Z,22
2023-03-07T22:15:32.057Z,21.9
2023-03-07T22:30:32.418Z,21.9
2023-03-07T22:45:32.593Z,21.8
2023-03-07T23:00:32.732Z,21.8
2023-03-07T23:15:32.444Z,21.8
2023-03-07T23:30:31.901Z,21.7
2023-03-07T23:45:32.243Z,21.7
